TAF Text Data
IDs:
Format:
Raw Decoded Include METAR

Data at: 0159 UTC 19 Oct 2021

KMFE 182320Z 1900/1924 10008KT P6SM FEW250
  FM190400 VRB04KT P6SM FEW250
  FM191500 15008KT P6SM SCT035 SCT250
  FM191800 14010KT P6SM BKN250